sensor_id;sensor_type;location;lat;lon;timestamp;temperature;humidity
21811;DHT22;11067;48.788;9.208;2022-12-04T00:01:20;2.30;99.90
21811;DHT22;11067;48.788;9.208;2022-12-04T00:03:46;2.30;99.90
21811;DHT22;11067;48.788;9.208;2022-12-04T00:06:15;2.30;99.90
21811;DHT22;11067;48.788;9.208;2022-12-04T00:08:43;2.40;99.90
21811;DHT22;11067;48.788;9.208;2022-12-04T00:11:10;2.40;99.90
21811;DHT22;11067;48.788;9.208;2022-12-04T00:13:37;2.40;99.90
21811;DHT22;11067;48.788;9.208;2022-12-04T00:16:07;2.40;99.90
21811;DHT22;11067;48.788;9.208;2022-12-04T00:18:34;2.30;99.90
21811;DHT22;11067;48.788;9.208;2022-12-04T00:21:05;2.30;99.90
21811;DHT22;11067;48.788;9.208;2022-12-04T00:23:32;2.30;99.90
21811;DHT22;11067;48.788;9.208;2022-12-04T00:26:00;2.40;99.90
21811;DHT22;11067;48.788;9.208;2022-12-04T00:28:25;2.40;99.90
21811;DHT22;11067;48.788;9.208;2022-12-04T00:30:51;2.40;99.90
21811;DHT22;11067;48.788;9.208;2022-12-04T00:33:16;2.40;99.90
21811;DHT22;11067;48.788;9.208;2022-12-04T00:35:42;2.50;99.90
21811;DHT22;11067;48.788;9.208;2022-12-04T00:38:07;2.40;99.90
21811;DHT22;11067;48.788;9.208;2022-12-04T00:40:33;2.40;99.90
21811;DHT22;11067;48.788;9.208;2022-12-04T00:42:58;2.40;99.90
21811;DHT22;11067;48.788;9.208;2022-12-04T00:45:24;2.40;99.90
21811;DHT22;11067;48.788;9.208;2022-12-04T00:47:50;2.40;99.90
21811;DHT22;11067;48.788;9.208;2022-12-04T00:50:15;2.40;99.90
21811;DHT22;11067;48.788;9.208;2022-12-04T00:52:41;2.40;99.90
21811;DHT22;11067;48.788;9.208;2022-12-04T00:55:07;2.40;99.90
21811;DHT22;11067;48.788;9.208;2022-12-04T00:57:32;2.40;99.90
21811;DHT22;11067;48.788;9.208;2022-12-04T00:59:58;2.40;99.90
21811;DHT22;11067;48.788;9.208;2022-12-04T01:02:23;2.40;99.90
21811;DHT22;11067;48.788;9.208;2022-12-04T01:04:49;2.30;99.90
21811;DHT22;11067;48.788;9.208;2022-12-04T01:07:14;2.40;99.90
21811;DHT22;11067;48.788;9.208;2022-12-04T01:09:40;2.30;99.90
21811;DHT22;11067;48.788;9.208;2022-12-04T01:12:06;2.40;99.90
21811;DHT22;11067;48.788;9.208;2022-12-04T01:14:31;2.40;99.90
21811;DHT22;11067;48.788;9.208;2022-12-04T01:16:57;2.40;99.90
21811;DHT22;11067;48.788;9.208;2022-12-04T01:19:23;2.50;99.90
21811;DHT22;11067;48.788;9.208;2022-12-04T01:21:48;2.50;99.90
21811;DHT22;11067;48.788;9.208;2022-12-04T01:24:14;2.50;99.90
21811;DHT22;11067;48.788;9.208;2022-12-04T01:26:40;2.50;99.90
21811;DHT22;11067;48.788;9.208;2022-12-04T01:29:05;2.50;99.90
21811;DHT22;11067;48.788;9.208;2022-12-04T01:31:31;2.40;99.90
21811;DHT22;11067;48.788;9.208;2022-12-04T01:33:57;2.50;99.90
21811;DHT22;11067;48.788;9.208;2022-12-04T01:36:25;2.50;99.90
21811;DHT22;11067;48.788;9.208;2022-12-04T01:38:51;2.40;99.90
21811;DHT22;11067;48.788;9.208;2022-12-04T01:41:20;2.50;99.90
21811;DHT22;11067;48.788;9.208;2022-12-04T01:44:09;2.50;99.90
21811;DHT22;11067;48.788;9.208;2022-12-04T01:46:36;2.40;99.90
21811;DHT22;11067;48.788;9.208;2022-12-04T01:49:04;2.50;99.90
21811;DHT22;11067;48.788;9.208;2022-12-04T01:51:36;2.50;99.90
21811;DHT22;11067;48.788;9.208;2022-12-04T01:54:07;2.50;99.90
21811;DHT22;11067;48.788;9.208;2022-12-04T01:56:45;2.60;99.90
21811;DHT22;11067;48.788;9.208;2022-12-04T01:59:15;2.60;99.90
21811;DHT22;11067;48.788;9.208;2022-12-04T02:02:04;2.50;99.90
21811;DHT22;11067;48.788;9.208;2022-12-04T02:04:32;2.50;99.90
21811;DHT22;11067;48.788;9.208;2022-12-04T02:06:58;2.50;99.90
21811;DHT22;11067;48.788;9.208;2022-12-04T02:09:24;2.60;99.90
21811;DHT22;11067;48.788;9.208;2022-12-04T02:17:38;2.50;99.90
21811;DHT22;11067;48.788;9.208;2022-12-04T02:24:01;2.50;99.90
21811;DHT22;11067;48.788;9.208;2022-12-04T02:26:45;2.60;99.90
21811;DHT22;11067;48.788;9.208;2022-12-04T02:29:35;2.50;99.90
21811;DHT22;11067;48.788;9.208;2022-12-04T02:34:54;2.50;99.90
21811;DHT22;11067;48.788;9.208;2022-12-04T02:37:44;2.50;99.90
21811;DHT22;11067;48.788;9.208;2022-12-04T02:40:20;2.50;99.90
21811;DHT22;11067;48.788;9.208;2022-12-04T02:45:20;2.50;99.90
21811;DHT22;11067;48.788;9.208;2022-12-04T02:47:49;2.50;99.90
21811;DHT22;11067;48.788;9.208;2022-12-04T02:50:18;2.50;99.90
21811;DHT22;11067;48.788;9.208;2022-12-04T02:52:51;2.60;99.90
21811;DHT22;11067;48.788;9.208;2022-12-04T02:55:31;2.60;99.90
21811;DHT22;11067;48.788;9.208;2022-12-04T02:58:03;2.50;99.90
21811;DHT22;11067;48.788;9.208;2022-12-04T03:00:31;2.60;99.90
21811;DHT22;11067;48.788;9.208;2022-12-04T03:03:00;2.60;99.90
21811;DHT22;11067;48.788;9.208;2022-12-04T03:05:57;2.60;99.90
21811;DHT22;11067;48.788;9.208;2022-12-04T03:08:28;2.70;99.90
21811;DHT22;11067;48.788;9.208;2022-12-04T03:10:57;2.70;99.90
21811;DHT22;11067;48.788;9.208;2022-12-04T03:13:46;2.60;99.90
21811;DHT22;11067;48.788;9.208;2022-12-04T03:16:27;2.60;99.90
21811;DHT22;11067;48.788;9.208;2022-12-04T03:19:20;2.50;99.90
21811;DHT22;11067;48.788;9.208;2022-12-04T03:21:50;2.60;99.90
21811;DHT22;11067;48.788;9.208;2022-12-04T03:24:23;2.60;99.90
21811;DHT22;11067;48.788;9.208;2022-12-04T03:26:58;2.60;99.90
21811;DHT22;11067;48.788;9.208;2022-12-04T03:29:32;2.60;99.90
21811;DHT22;11067;48.788;9.208;2022-12-04T03:35:03;2.60;99.90
21811;DHT22;11067;48.788;9.208;2022-12-04T03:37:33;2.60;99.90
21811;DHT22;11067;48.788;9.208;2022-12-04T03:40:40;2.60;99.90
21811;DHT22;11067;48.788;9.208;2022-12-04T03:43:15;2.60;99.90
21811;DHT22;11067;48.788;9.208;2022-12-04T03:48:58;2.60;99.90
21811;DHT22;11067;48.788;9.208;2022-12-04T03:51:33;2.70;99.90
21811;DHT22;11067;48.788;9.208;2022-12-04T03:54:11;2.70;99.90
21811;DHT22;11067;48.788;9.208;2022-12-04T03:56:50;2.50;99.90
21811;DHT22;11067;48.788;9.208;2022-12-04T03:59:31;2.60;99.90
21811;DHT22;11067;48.788;9.208;2022-12-04T04:01:59;2.60;99.90
21811;DHT22;11067;48.788;9.208;2022-12-04T04:04:30;2.70;99.90
21811;DHT22;11067;48.788;9.208;2022-12-04T04:07:00;2.60;99.90
21811;DHT22;11067;48.788;9.208;2022-12-04T04:09:31;2.60;99.90
21811;DHT22;11067;48.788;9.208;2022-12-04T04:12:05;2.60;99.90
21811;DHT22;11067;48.788;9.208;2022-12-04T04:17:30;2.70;99.90
21811;DHT22;11067;48.788;9.208;2022-12-04T04:20:20;2.70;99.90
21811;DHT22;11067;48.788;9.208;2022-12-04T04:23:08;2.60;99.90
21811;DHT22;11067;48.788;9.208;2022-12-04T04:25:57;2.70;99.90
21811;DHT22;11067;48.788;9.208;2022-12-04T04:28:28;2.60;99.90
21811;DHT22;11067;48.788;9.208;2022-12-04T04:30:59;2.60;99.90
21811;DHT22;11067;48.788;9.208;2022-12-04T04:33:27;2.50;99.90
21811;DHT22;11067;48.788;9.208;2022-12-04T04:36:13;2.50;99.90
21811;DHT22;11067;48.788;9.208;2022-12-04T04:39:27;2.50;99.90
21811;DHT22;11067;48.788;9.208;2022-12-04T04:41:41;2.60;99.90
21811;DHT22;11067;48.788;9.208;2022-12-04T04:46:45;2.60;99.90
21811;DHT22;11067;48.788;9.208;2022-12-04T04:49:13;2.60;99.90
21811;DHT22;11067;48.788;9.208;2022-12-04T04:51:39;2.60;99.90
21811;DHT22;11067;48.788;9.208;2022-12-04T04:54:07;2.60;99.90
21811;DHT22;11067;48.788;9.208;2022-12-04T04:56:44;2.60;99.90
21811;DHT22;11067;48.788;9.208;2022-12-04T04:59:11;2.60;99.90
21811;DHT22;11067;48.788;9.208;2022-12-04T05:01:38;2.50;99.90
21811;DHT22;11067;48.788;9.208;2022-12-04T05:04:05;2.60;99.90
21811;DHT22;11067;48.788;9.208;2022-12-04T05:06:31;2.60;99.90
21811;DHT22;11067;48.788;9.208;2022-12-04T05:08:57;2.60;99.90
21811;DHT22;11067;48.788;9.208;2022-12-04T05:11:22;2.50;99.90
21811;DHT22;11067;48.788;9.208;2022-12-04T05:13:48;2.50;99.90
21811;DHT22;11067;48.788;9.208;2022-12-04T05:16:14;2.60;99.90
21811;DHT22;11067;48.788;9.208;2022-12-04T05:18:40;2.50;99.90
21811;DHT22;11067;48.788;9.208;2022-12-04T05:21:26;2.50;99.90
21811;DHT22;11067;48.788;9.208;2022-12-04T05:23:51;2.50;99.90
21811;DHT22;11067;48.788;9.208;2022-12-04T05:26:19;2.40;99.90
21811;DHT22;11067;48.788;9.208;2022-12-04T05:28:44;2.40;99.90
21811;DHT22;11067;48.788;9.208;2022-12-04T05:31:10;2.40;99.90
21811;DHT22;11067;48.788;9.208;2022-12-04T05:33:35;2.50;99.90
21811;DHT22;11067;48.788;9.208;2022-12-04T05:36:06;2.50;99.90
21811;DHT22;11067;48.788;9.208;2022-12-04T05:38:32;2.50;99.90
21811;DHT22;11067;48.788;9.208;2022-12-04T05:40:59;2.50;99.90
21811;DHT22;11067;48.788;9.208;2022-12-04T05:43:24;2.50;99.90
21811;DHT22;11067;48.788;9.208;2022-12-04T05:45:50;2.50;99.90
21811;DHT22;11067;48.788;9.208;2022-12-04T05:48:16;2.50;99.90
21811;DHT22;11067;48.788;9.208;2022-12-04T05:50:41;2.70;99.90
21811;DHT22;11067;48.788;9.208;2022-12-04T05:53:07;2.60;99.90
21811;DHT22;11067;48.788;9.208;2022-12-04T05:55:32;2.60;99.90
21811;DHT22;11067;48.788;9.208;2022-12-04T05:57:58;2.60;99.90
21811;DHT22;11067;48.788;9.208;2022-12-04T06:00:24;2.60;99.90
21811;DHT22;11067;48.788;9.208;2022-12-04T06:02:49;2.60;99.90
21811;DHT22;11067;48.788;9.208;2022-12-04T06:05:15;2.50;99.90
21811;DHT22;11067;48.788;9.208;2022-12-04T06:07:40;2.60;99.90
21811;DHT22;11067;48.788;9.208;2022-12-04T06:10:06;2.60;99.90
21811;DHT22;11067;48.788;9.208;2022-12-04T06:12:31;2.50;99.90
21811;DHT22;11067;48.788;9.208;2022-12-04T06:14:57;2.50;99.90
21811;DHT22;11067;48.788;9.208;2022-12-04T06:17:23;2.50;99.90
21811;DHT22;11067;48.788;9.208;2022-12-04T06:19:48;2.50;99.90
21811;DHT22;11067;48.788;9.208;2022-12-04T06:22:14;2.60;99.90
21811;DHT22;11067;48.788;9.208;2022-12-04T06:24:39;2.50;99.90
21811;DHT22;11067;48.788;9.208;2022-12-04T06:27:05;2.50;99.90
21811;DHT22;11067;48.788;9.208;2022-12-04T06:29:31;2.50;99.90
21811;DHT22;11067;48.788;9.208;2022-12-04T06:31:57;2.50;99.90
21811;DHT22;11067;48.788;9.208;2022-12-04T06:34:23;2.50;99.90
21811;DHT22;11067;48.788;9.208;2022-12-04T06:36:48;2.50;99.90
21811;DHT22;11067;48.788;9.208;2022-12-04T06:39:14;2.50;99.90
21811;DHT22;11067;48.788;9.208;2022-12-04T06:41:39;2.50;99.90
21811;DHT22;11067;48.788;9.208;2022-12-04T06:44:05;2.50;99.90
21811;DHT22;11067;48.788;9.208;2022-12-04T06:46:32;2.50;99.90
21811;DHT22;11067;48.788;9.208;2022-12-04T06:48:59;2.60;99.90
21811;DHT22;11067;48.788;9.208;2022-12-04T06:51:29;2.60;99.90
21811;DHT22;11067;48.788;9.208;2022-12-04T06:53:54;2.60;99.90
21811;DHT22;11067;48.788;9.208;2022-12-04T06:56:22;2.60;99.90
21811;DHT22;11067;48.788;9.208;2022-12-04T06:58:50;2.60;99.90
21811;DHT22;11067;48.788;9.208;2022-12-04T07:01:19;2.60;99.90
21811;DHT22;11067;48.788;9.208;2022-12-04T07:03:46;2.70;99.90
21811;DHT22;11067;48.788;9.208;2022-12-04T07:08:39;2.60;99.90
21811;DHT22;11067;48.788;9.208;2022-12-04T07:11:05;2.60;99.90
21811;DHT22;11067;48.788;9.208;2022-12-04T07:13:30;2.70;99.90
21811;DHT22;11067;48.788;9.208;2022-12-04T07:15:59;2.60;99.90
21811;DHT22;11067;48.788;9.208;2022-12-04T07:18:25;2.60;99.90
21811;DHT22;11067;48.788;9.208;2022-12-04T07:20:51;2.60;99.90
21811;DHT22;11067;48.788;9.208;2022-12-04T07:23:16;2.60;99.90
21811;DHT22;11067;48.788;9.208;2022-12-04T07:25:42;2.60;99.90
21811;DHT22;11067;48.788;9.208;2022-12-04T07:28:07;2.70;99.90
21811;DHT22;11067;48.788;9.208;2022-12-04T07:30:33;2.70;99.90
21811;DHT22;11067;48.788;9.208;2022-12-04T07:32:58;2.70;99.90
21811;DHT22;11067;48.788;9.208;2022-12-04T07:35:24;2.70;99.90
21811;DHT22;11067;48.788;9.208;2022-12-04T07:37:49;2.60;99.90
21811;DHT22;11067;48.788;9.208;2022-12-04T07:40:15;2.70;99.90
21811;DHT22;11067;48.788;9.208;2022-12-04T07:42:40;2.70;99.90
21811;DHT22;11067;48.788;9.208;2022-12-04T07:45:06;2.70;99.90
21811;DHT22;11067;48.788;9.208;2022-12-04T07:47:34;2.70;99.90
21811;DHT22;11067;48.788;9.208;2022-12-04T07:49:59;2.60;99.90
21811;DHT22;11067;48.788;9.208;2022-12-04T07:52:25;2.60;99.90
21811;DHT22;11067;48.788;9.208;2022-12-04T07:54:50;2.60;99.90
21811;DHT22;11067;48.788;9.208;2022-12-04T07:57:16;2.70;99.90
21811;DHT22;11067;48.788;9.208;2022-12-04T07:59:41;2.70;99.90
21811;DHT22;11067;48.788;9.208;2022-12-04T08:02:07;2.70;99.90
21811;DHT22;11067;48.788;9.208;2022-12-04T08:04:32;2.70;99.90
21811;DHT22;11067;48.788;9.208;2022-12-04T08:06:58;2.70;99.90
21811;DHT22;11067;48.788;9.208;2022-12-04T08:09:24;2.60;99.90
21811;DHT22;11067;48.788;9.208;2022-12-04T08:11:49;2.70;99.90
21811;DHT22;11067;48.788;9.208;2022-12-04T08:14:15;2.70;99.90
21811;DHT22;11067;48.788;9.208;2022-12-04T08:16:40;2.70;99.90
21811;DHT22;11067;48.788;9.208;2022-12-04T08:19:06;2.70;99.90
21811;DHT22;11067;48.788;9.208;2022-12-04T08:21:32;2.70;99.90
21811;DHT22;11067;48.788;9.208;2022-12-04T08:23:58;2.80;99.90
21811;DHT22;11067;48.788;9.208;2022-12-04T08:26:25;2.70;99.90
21811;DHT22;11067;48.788;9.208;2022-12-04T08:28:53;2.80;99.90
21811;DHT22;11067;48.788;9.208;2022-12-04T08:31:21;2.80;99.90
21811;DHT22;11067;48.788;9.208;2022-12-04T08:33:48;2.80;99.90
21811;DHT22;11067;48.788;9.208;2022-12-04T08:36:17;2.80;99.90
21811;DHT22;11067;48.788;9.208;2022-12-04T08:38:43;2.80;99.90
21811;DHT22;11067;48.788;9.208;2022-12-04T08:41:11;2.90;99.90
21811;DHT22;11067;48.788;9.208;2022-12-04T08:43:37;2.90;99.90
21811;DHT22;11067;48.788;9.208;2022-12-04T08:46:07;2.90;99.90
21811;DHT22;11067;48.788;9.208;2022-12-04T08:48:33;3.00;99.90
21811;DHT22;11067;48.788;9.208;2022-12-04T08:50:59;2.90;99.90
21811;DHT22;11067;48.788;9.208;2022-12-04T08:53:25;2.90;99.90
21811;DHT22;11067;48.788;9.208;2022-12-04T08:55:51;2.90;99.90
21811;DHT22;11067;48.788;9.208;2022-12-04T08:58:17;2.90;99.90
21811;DHT22;11067;48.788;9.208;2022-12-04T09:00:44;3.00;99.90
21811;DHT22;11067;48.788;9.208;2022-12-04T09:03:13;3.00;99.90
21811;DHT22;11067;48.788;9.208;2022-12-04T09:05:39;3.10;99.90
21811;DHT22;11067;48.788;9.208;2022-12-04T09:08:06;3.00;99.90
21811;DHT22;11067;48.788;9.208;2022-12-04T09:10:35;3.00;99.90
21811;DHT22;11067;48.788;9.208;2022-12-04T09:13:01;3.10;99.90
21811;DHT22;11067;48.788;9.208;2022-12-04T09:15:26;3.10;99.90
21811;DHT22;11067;48.788;9.208;2022-12-04T09:17:52;3.00;99.90
21811;DHT22;11067;48.788;9.208;2022-12-04T09:20:18;3.10;99.90
21811;DHT22;11067;48.788;9.208;2022-12-04T09:22:43;3.10;99.90
21811;DHT22;11067;48.788;9.208;2022-12-04T09:25:09;3.10;99.90
21811;DHT22;11067;48.788;9.208;2022-12-04T09:27:36;3.10;99.90
21811;DHT22;11067;48.788;9.208;2022-12-04T09:30:04;3.00;99.90
21811;DHT22;11067;48.788;9.208;2022-12-04T09:32:29;3.10;99.90
21811;DHT22;11067;48.788;9.208;2022-12-04T09:34:55;3.10;99.90
21811;DHT22;11067;48.788;9.208;2022-12-04T09:37:20;3.10;99.90
21811;DHT22;11067;48.788;9.208;2022-12-04T09:39:46;3.10;99.90
21811;DHT22;11067;48.788;9.208;2022-12-04T09:42:43;3.20;99.90
21811;DHT22;11067;48.788;9.208;2022-12-04T09:45:16;3.20;99.90
21811;DHT22;11067;48.788;9.208;2022-12-04T09:47:45;3.20;99.90
21811;DHT22;11067;48.788;9.208;2022-12-04T09:50:17;3.30;99.90
21811;DHT22;11067;48.788;9.208;2022-12-04T09:58:31;3.10;99.90
21811;DHT22;11067;48.788;9.208;2022-12-04T10:01:00;3.00;99.90
21811;DHT22;11067;48.788;9.208;2022-12-04T10:03:28;2.90;99.90
21811;DHT22;11067;48.788;9.208;2022-12-04T10:06:20;3.00;99.90
21811;DHT22;11067;48.788;9.208;2022-12-04T10:08:57;3.10;99.90
21811;DHT22;11067;48.788;9.208;2022-12-04T10:11:26;3.10;99.90
21811;DHT22;11067;48.788;9.208;2022-12-04T10:19:51;3.20;99.90
21811;DHT22;11067;48.788;9.208;2022-12-04T10:22:27;3.10;99.90
21811;DHT22;11067;48.788;9.208;2022-12-04T10:24:54;3.00;99.90
21811;DHT22;11067;48.788;9.208;2022-12-04T10:27:26;3.00;99.90
21811;DHT22;11067;48.788;9.208;2022-12-04T10:30:00;3.00;99.90
21811;DHT22;11067;48.788;9.208;2022-12-04T10:32:31;3.10;99.90
21811;DHT22;11067;48.788;9.208;2022-12-04T10:35:02;3.20;99.90
21811;DHT22;11067;48.788;9.208;2022-12-04T10:37:31;3.20;99.90
21811;DHT22;11067;48.788;9.208;2022-12-04T10:40:25;3.20;99.90
21811;DHT22;11067;48.788;9.208;2022-12-04T10:43:11;3.20;99.90
21811;DHT22;11067;48.788;9.208;2022-12-04T10:45:39;3.10;99.90
21811;DHT22;11067;48.788;9.208;2022-12-04T10:48:05;3.00;99.90
21811;DHT22;11067;48.788;9.208;2022-12-04T10:50:32;3.00;99.90
21811;DHT22;11067;48.788;9.208;2022-12-04T10:52:58;3.00;99.90
21811;DHT22;11067;48.788;9.208;2022-12-04T10:55:32;3.00;99.90
21811;DHT22;11067;48.788;9.208;2022-12-04T10:57:58;3.00;99.90
21811;DHT22;11067;48.788;9.208;2022-12-04T11:02:54;3.00;99.90
21811;DHT22;11067;48.788;9.208;2022-12-04T11:06:12;3.00;99.90
21811;DHT22;11067;48.788;9.208;2022-12-04T11:08:27;3.10;99.90
21811;DHT22;11067;48.788;9.208;2022-12-04T11:11:03;3.10;99.90
21811;DHT22;11067;48.788;9.208;2022-12-04T11:13:30;3.20;99.90
21811;DHT22;11067;48.788;9.208;2022-12-04T11:15:57;3.10;99.90
21811;DHT22;11067;48.788;9.208;2022-12-04T11:18:32;3.10;99.90
21811;DHT22;11067;48.788;9.208;2022-12-04T11:21:07;3.10;99.90
21811;DHT22;11067;48.788;9.208;2022-12-04T11:23:47;3.10;99.90
21811;DHT22;11067;48.788;9.208;2022-12-04T11:26:13;3.00;99.90
21811;DHT22;11067;48.788;9.208;2022-12-04T11:28:44;3.00;99.90
21811;DHT22;11067;48.788;9.208;2022-12-04T11:31:16;3.00;99.90
21811;DHT22;11067;48.788;9.208;2022-12-04T11:33:45;3.10;99.90
21811;DHT22;11067;48.788;9.208;2022-12-04T11:36:22;3.20;99.90
21811;DHT22;11067;48.788;9.208;2022-12-04T11:38:50;3.20;99.90
21811;DHT22;11067;48.788;9.208;2022-12-04T11:41:28;3.20;99.90
21811;DHT22;11067;48.788;9.208;2022-12-04T11:43:54;3.30;99.90
21811;DHT22;11067;48.788;9.208;2022-12-04T11:46:23;3.20;99.90
21811;DHT22;11067;48.788;9.208;2022-12-04T11:48:48;3.20;99.90
21811;DHT22;11067;48.788;9.208;2022-12-04T11:56:24;3.10;99.90
21811;DHT22;11067;48.788;9.208;2022-12-04T12:24:27;3.30;99.90
21811;DHT22;11067;48.788;9.208;2022-12-04T12:30:00;3.20;99.90
21811;DHT22;11067;48.788;9.208;2022-12-04T12:35:28;3.40;99.90
21811;DHT22;11067;48.788;9.208;2022-12-04T12:38:06;3.30;99.90
21811;DHT22;11067;48.788;9.208;2022-12-04T12:40:41;3.30;99.90
21811;DHT22;11067;48.788;9.208;2022-12-04T12:43:17;3.30;99.90
21811;DHT22;11067;48.788;9.208;2022-12-04T12:45:54;3.30;99.90
21811;DHT22;11067;48.788;9.208;2022-12-04T12:48:45;3.30;99.90
21811;DHT22;11067;48.788;9.208;2022-12-04T12:51:36;3.20;99.90
21811;DHT22;11067;48.788;9.208;2022-12-04T12:56:59;3.20;99.90
21811;DHT22;11067;48.788;9.208;2022-12-04T12:59:27;3.20;99.90
21811;DHT22;11067;48.788;9.208;2022-12-04T13:01:57;3.30;99.90
21811;DHT22;11067;48.788;9.208;2022-12-04T13:04:47;3.40;99.90
21811;DHT22;11067;48.788;9.208;2022-12-04T13:10:23;3.40;99.90
21811;DHT22;11067;48.788;9.208;2022-12-04T13:12:52;3.40;99.90
21811;DHT22;11067;48.788;9.208;2022-12-04T13:15:22;3.30;99.90
21811;DHT22;11067;48.788;9.208;2022-12-04T13:17:50;3.30;99.90
21811;DHT22;11067;48.788;9.208;2022-12-04T13:20:25;3.40;99.90
21811;DHT22;11067;48.788;9.208;2022-12-04T13:26:02;3.40;99.90
21811;DHT22;11067;48.788;9.208;2022-12-04T13:31:58;3.50;99.90
21811;DHT22;11067;48.788;9.208;2022-12-04T13:34:36;3.40;99.90
21811;DHT22;11067;48.788;9.208;2022-12-04T13:42:42;3.40;99.90
21811;DHT22;11067;48.788;9.208;2022-12-04T13:45:27;3.30;99.90
21811;DHT22;11067;48.788;9.208;2022-12-04T13:47:58;3.60;99.90
21811;DHT22;11067;48.788;9.208;2022-12-04T13:50:35;3.50;99.90
21811;DHT22;11067;48.788;9.208;2022-12-04T13:53:01;3.50;99.90
21811;DHT22;11067;48.788;9.208;2022-12-04T13:55:32;3.50;99.90
21811;DHT22;11067;48.788;9.208;2022-12-04T14:00:45;3.50;99.90
21811;DHT22;11067;48.788;9.208;2022-12-04T14:03:24;3.50;99.90
21811;DHT22;11067;48.788;9.208;2022-12-04T14:05:52;3.50;99.90
21811;DHT22;11067;48.788;9.208;2022-12-04T14:11:05;3.60;99.90
21811;DHT22;11067;48.788;9.208;2022-12-04T14:13:53;3.40;99.90
21811;DHT22;11067;48.788;9.208;2022-12-04T14:16:38;3.60;99.90
21811;DHT22;11067;48.788;9.208;2022-12-04T14:19:05;3.60;99.90
21811;DHT22;11067;48.788;9.208;2022-12-04T14:21:45;3.60;99.90
21811;DHT22;11067;48.788;9.208;2022-12-04T14:24:37;3.50;99.90
21811;DHT22;11067;48.788;9.208;2022-12-04T14:27:30;3.50;99.90
21811;DHT22;11067;48.788;9.208;2022-12-04T14:29:57;3.40;99.90
21811;DHT22;11067;48.788;9.208;2022-12-04T14:32:27;3.40;99.90
21811;DHT22;11067;48.788;9.208;2022-12-04T14:34:56;3.30;99.90
21811;DHT22;11067;48.788;9.208;2022-12-04T14:37:39;3.40;99.90
21811;DHT22;11067;48.788;9.208;2022-12-04T14:40:06;3.50;99.90
21811;DHT22;11067;48.788;9.208;2022-12-04T14:42:40;3.50;99.90
21811;DHT22;11067;48.788;9.208;2022-12-04T14:48:22;3.40;99.90
21811;DHT22;11067;48.788;9.208;2022-12-04T14:50:56;3.60;99.90
21811;DHT22;11067;48.788;9.208;2022-12-04T14:58:44;3.50;99.90
21811;DHT22;11067;48.788;9.208;2022-12-04T15:01:22;3.50;99.90
21811;DHT22;11067;48.788;9.208;2022-12-04T15:03:50;3.50;99.90
21811;DHT22;11067;48.788;9.208;2022-12-04T15:06:24;3.40;99.90
21811;DHT22;11067;48.788;9.208;2022-12-04T15:08:54;3.60;99.90
21811;DHT22;11067;48.788;9.208;2022-12-04T15:11:50;3.60;99.90
21811;DHT22;11067;48.788;9.208;2022-12-04T15:14:43;3.60;99.90
21811;DHT22;11067;48.788;9.208;2022-12-04T15:17:09;3.40;99.90
21811;DHT22;11067;48.788;9.208;2022-12-04T15:19:35;3.50;99.90
21811;DHT22;11067;48.788;9.208;2022-12-04T15:22:02;3.50;99.90
21811;DHT22;11067;48.788;9.208;2022-12-04T15:24:29;3.60;99.90
21811;DHT22;11067;48.788;9.208;2022-12-04T15:26:55;3.50;99.90
21811;DHT22;11067;48.788;9.208;2022-12-04T15:29:30;3.50;99.90
21811;DHT22;11067;48.788;9.208;2022-12-04T15:32:01;3.50;99.90
21811;DHT22;11067;48.788;9.208;2022-12-04T15:37:30;3.40;99.90
21811;DHT22;11067;48.788;9.208;2022-12-04T15:39:56;3.40;99.90
21811;DHT22;11067;48.788;9.208;2022-12-04T15:45:03;3.40;99.90
21811;DHT22;11067;48.788;9.208;2022-12-04T15:55:52;3.40;99.90
21811;DHT22;11067;48.788;9.208;2022-12-04T15:58:25;3.40;99.90
21811;DHT22;11067;48.788;9.208;2022-12-04T16:01:03;3.40;99.90
21811;DHT22;11067;48.788;9.208;2022-12-04T16:03:38;3.40;99.90
21811;DHT22;11067;48.788;9.208;2022-12-04T16:06:18;3.40;99.90
21811;DHT22;11067;48.788;9.208;2022-12-04T16:08:46;3.40;99.90
21811;DHT22;11067;48.788;9.208;2022-12-04T16:14:01;3.30;99.90
21811;DHT22;11067;48.788;9.208;2022-12-04T16:16:28;3.30;99.90
21811;DHT22;11067;48.788;9.208;2022-12-04T16:18:53;3.30;99.90
21811;DHT22;11067;48.788;9.208;2022-12-04T16:21:21;3.40;99.90
21811;DHT22;11067;48.788;9.208;2022-12-04T16:23:47;3.40;99.90
21811;DHT22;11067;48.788;9.208;2022-12-04T16:26:14;3.50;99.90
21811;DHT22;11067;48.788;9.208;2022-12-04T16:28:39;3.50;99.90
21811;DHT22;11067;48.788;9.208;2022-12-04T16:31:06;3.50;99.90
21811;DHT22;11067;48.788;9.208;2022-12-04T16:33:32;3.50;99.90
21811;DHT22;11067;48.788;9.208;2022-12-04T16:35:57;3.40;99.90
21811;DHT22;11067;48.788;9.208;2022-12-04T16:38:23;3.20;99.90
21811;DHT22;11067;48.788;9.208;2022-12-04T16:40:48;3.30;99.90
21811;DHT22;11067;48.788;9.208;2022-12-04T16:43:15;3.30;99.90
21811;DHT22;11067;48.788;9.208;2022-12-04T16:45:45;3.40;99.90
21811;DHT22;11067;48.788;9.208;2022-12-04T16:48:11;3.30;99.90
21811;DHT22;11067;48.788;9.208;2022-12-04T16:50:37;3.40;99.90
21811;DHT22;11067;48.788;9.208;2022-12-04T16:53:02;3.50;99.90
21811;DHT22;11067;48.788;9.208;2022-12-04T16:55:34;3.50;99.90
21811;DHT22;11067;48.788;9.208;2022-12-04T16:58:00;3.40;99.90
21811;DHT22;11067;48.788;9.208;2022-12-04T17:00:26;3.40;99.90
21811;DHT22;11067;48.788;9.208;2022-12-04T17:02:51;3.30;99.90
21811;DHT22;11067;48.788;9.208;2022-12-04T17:05:23;3.30;99.90
21811;DHT22;11067;48.788;9.208;2022-12-04T17:07:49;3.30;99.90
21811;DHT22;11067;48.788;9.208;2022-12-04T17:10:15;3.20;99.90
21811;DHT22;11067;48.788;9.208;2022-12-04T17:12:41;3.30;99.90
21811;DHT22;11067;48.788;9.208;2022-12-04T17:15:08;3.30;99.90
21811;DHT22;11067;48.788;9.208;2022-12-04T17:17:34;3.10;99.90
21811;DHT22;11067;48.788;9.208;2022-12-04T17:19:59;3.30;99.90
21811;DHT22;11067;48.788;9.208;2022-12-04T17:22:25;3.20;99.90
21811;DHT22;11067;48.788;9.208;2022-12-04T17:24:54;3.10;99.90
21811;DHT22;11067;48.788;9.208;2022-12-04T17:27:20;3.10;99.90
21811;DHT22;11067;48.788;9.208;2022-12-04T17:29:46;3.20;99.90
21811;DHT22;11067;48.788;9.208;2022-12-04T17:32:12;3.30;99.90
21811;DHT22;11067;48.788;9.208;2022-12-04T17:34:38;3.30;99.90
21811;DHT22;11067;48.788;9.208;2022-12-04T17:37:04;3.20;99.90
21811;DHT22;11067;48.788;9.208;2022-12-04T17:39:29;3.20;99.90
21811;DHT22;11067;48.788;9.208;2022-12-04T17:41:55;3.10;99.90
21811;DHT22;11067;48.788;9.208;2022-12-04T17:44:20;3.10;99.90
21811;DHT22;11067;48.788;9.208;2022-12-04T17:46:46;3.20;99.90
21811;DHT22;11067;48.788;9.208;2022-12-04T17:49:12;3.20;99.90
21811;DHT22;11067;48.788;9.208;2022-12-04T17:51:37;3.10;99.90
21811;DHT22;11067;48.788;9.208;2022-12-04T17:54:03;3.10;99.90
21811;DHT22;11067;48.788;9.208;2022-12-04T17:56:30;3.20;99.90
21811;DHT22;11067;48.788;9.208;2022-12-04T17:58:55;3.10;99.90
21811;DHT22;11067;48.788;9.208;2022-12-04T18:01:23;3.10;99.90
21811;DHT22;11067;48.788;9.208;2022-12-04T18:03:57;3.20;99.90
21811;DHT22;11067;48.788;9.208;2022-12-04T18:06:25;3.10;99.90
21811;DHT22;11067;48.788;9.208;2022-12-04T18:08:52;3.10;99.90
21811;DHT22;11067;48.788;9.208;2022-12-04T18:11:19;3.10;99.90